SondeTracker

Meteorological Radiosondes Database

Operations

Sounding was ended - last measurement: 2022-12-06 01:46:38z

MAP
About Radiosonde

Number: U3044508

Launch Site:

Type: RS41

AUX: NO

Frequency: 403.401 MHz

Max Speed: 252 km/h at 34529 m

Average Speed: 117.90 km/h

Max Altitude: 35915 m

Average Ascent Speed: 5.02 m/s

Average Descent Speed: 15.29 m/s

Status: UNKNOWN

Status Changes
Launch Site Type AUX Frequency Status Finder Landing Point Description Changes made by
APRS Statistics

Received Frames: 80

First Frame [UTC]: 2022-12-05 23:56:32z

Last Frame [UTC]: 2022-12-06 01:46:38z

Receivers: N4XWC-2

Flight Time: 01:50:06 h

Distance From First Measurement: 202.50 km

Nearest City: Selma [AL] (US) [36.42 km]

Nearest Hunter: [0.00 km]

Ground Altitude: 88 m

Distance from QTH: 0.00 km

APRS Data
Receiver Number Date/Time [UTC] φ λ Course [°] Speed [km/h] Altitude [m] Description
N4XWC-2U30445082022-12-06 01:46:3832.0952-87.108390612393Clb=-7.1m/s t=6.3C h=-1.0% p=-1.0hPa 403.401 MHz Type=RS41-NG ser=U3044508 Radiosonde
N4XWC-2U30445082022-12-06 01:45:3732.0941-87.117679652731Clb=-6.9m/s t=4.8C h=-1.0% p=-1.0hPa 403.401 MHz Type=RS41-NG ser=U3044508 Radiosonde
N4XWC-2U30445082022-12-06 01:44:3632.0942-87.126696543160Clb=-7.9m/s t=7.2C h=-1.0% p=-1.0hPa 403.401 MHz Type=RS41-NG ser=U3044508 Radiosonde
N4XWC-2U30445082022-12-06 01:43:3532.0945-87.13793593636Clb=-7.7m/s t=3.9C h=-1.0% p=-1.0hPa 403.401 MHz Type=RS41-NG ser=U3044508 Radiosonde
N4XWC-2U30445082022-12-06 01:42:3432.0949-87.147590674093Clb=-7.5m/s t=0.4C h=-1.0% p=-1.0hPa 403.401 MHz Type=RS41-NG ser=U3044508 Radiosonde
N4XWC-2U30445082022-12-06 01:41:3332.0955-87.159392654574Clb=-7.7m/s t=-273.0C h=-1.0% p=-1.0hPa 403.401 MHz Type=RS41 ser=U3044508 Radiosonde
N4XWC-2U30445082022-12-06 01:40:3232.096-87.178596875225Clb=-7.4m/s t=-273.0C h=-1.0% p=-1.0hPa 403.401 MHz Type=RS41 ser=U3044508 Radiosonde
N4XWC-2U30445082022-12-06 01:38:3032.1005-87.21699896271Clb=-7.3m/s t=-273.0C h=-1.0% p=-1.0hPa 403.401 MHz Type=RS41 ser=U3044508 Radiosonde
N4XWC-2U30445082022-12-06 01:37:2932.1013-87.2216103856442Clb=-7.6m/s t=-273.0C h=-1.0% p=-1.0hPa 403.401 MHz Type=RS41 ser=U3044508 Radiosonde
N4XWC-2U30445082022-12-06 01:36:2832.104-87.23797786950Clb=-7.9m/s t=-273.0C h=-1.0% p=-1.0hPa 403.401 MHz Type=RS41 ser=U3044508 Radiosonde
N4XWC-2U30445082022-12-06 01:23:1432.155-87.50859414615165Clb=-13.7m/s t=-273.0C h=-1.0% p=-1.0hPa 403.401 MHz Type=RS41 ser=U3044508 Radiosonde
N4XWC-2U30445082022-12-06 01:21:1232.1654-87.554310613516923Clb=-15.2m/s t=-273.0C h=-1.0% p=-1.0hPa 403.401 MHz Type=RS41 ser=U3044508 Radiosonde
N4XWC-2U30445082022-12-06 01:17:0832.1827-87.61751005022239Clb=-21.8m/s t=-61.0C h=1.4% p=-1.0hPa 403.401 MHz Type=RS41-NG ser=U3044508 Radiosonde
N4XWC-2U30445082022-12-06 01:16:0732.1842-87.6222824623431Clb=-23.5m/s t=-61.4C h=1.7% p=-1.0hPa 403.401 MHz Type=RS41-NG ser=U3044508 Radiosonde
N4XWC-2U30445082022-12-06 01:15:1032.1851-87.6291904624588Clb=-25.9m/s t=-55.9C h=1.1% p=-1.0hPa 403.401 MHz Type=RS41-NG ser=U3044508 Radiosonde
N4XWC-2U30445082022-12-06 01:14:1032.185-87.6372887025953Clb=-30.3m/s t=-55.3C h=1.1% p=-1.0hPa 403.401 MHz Type=RS41-NG ser=U3044508 Radiosonde
N4XWC-2U30445082022-12-06 01:13:0932.1832-87.65348411928102Clb=-37.1m/s t=-51.0C h=0.9% p=-1.0hPa 403.401 MHz Type=RS41-NG ser=U3044508 Radiosonde
N4XWC-2U30445082022-12-06 01:12:0832.1821-87.67748315930468Clb=-44.0m/s t=-47.1C h=0.6% p=-1.0hPa 403.401 MHz Type=RS41-NG ser=U3044508 Radiosonde
N4XWC-2U30445082022-12-06 01:11:0632.181-87.70819322633694Clb=-78.6m/s t=-37.8C h=0.3% p=-1.0hPa 403.401 MHz Type=RS41-NG ser=U3044508 Radiosonde
N4XWC-2U30445082022-12-06 01:10:0532.1831-87.74879022235915Clb=6.8m/s t=-40.7C h=0.4% p=-1.0hPa 403.401 MHz Type=RS41-NG ser=U3044508 Radiosonde
N4XWC-2U30445082022-12-06 01:09:0332.1839-87.78998822435523Clb=6.2m/s t=-39.5C h=0.4% p=-1.0hPa 403.401 MHz Type=RS41-NG ser=U3044508 Radiosonde
N4XWC-2U30445082022-12-06 01:07:5832.1832-87.8318921935232Clb=3.4m/s t=-38.8C h=0.3% p=-1.0hPa 403.401 MHz Type=RS41-NG ser=U3044508 Radiosonde
N4XWC-2U30445082022-12-06 01:06:5732.1835-87.87179124335020Clb=3.4m/s t=-40.3C h=0.4% p=-1.0hPa 403.401 MHz Type=RS41-NG ser=U3044508 Radiosonde
N4XWC-2U30445082022-12-06 01:06:4132.1848-87.91279521534789Clb=4.3m/s t=-43.0C h=0.5% p=-1.0hPa 403.401 MHz Type=RS41-NG ser=U3044508 Radiosonde
N4XWC-2U30445082022-12-06 01:06:1632.1873-87.95588825234529Clb=3.1m/s t=-42.5C h=0.5% p=-1.0hPa 403.401 MHz Type=RS41-NG ser=U3044508 Radiosonde
N4XWC-2U30445082022-12-06 01:05:5532.1899-87.99649519434225Clb=4.0m/s t=-42.3C h=0.5% p=-1.0hPa 403.401 MHz Type=RS41-NG ser=U3044508 Radiosonde
N4XWC-2U30445082022-12-06 01:05:4432.1921-88.034910218533899Clb=1.0m/s t=-41.6C h=0.4% p=-1.0hPa 403.401 MHz Type=RS41-NG ser=U3044508 Radiosonde
N4XWC-2U30445082022-12-06 01:05:0032.1926-88.071710218533573Clb=-2.3m/s t=-41.9C h=0.5% p=-1.0hPa 403.401 MHz Type=RS41-NG ser=U3044508 Radiosonde
N4XWC-2U30445082022-12-06 01:04:4332.1949-88.10759119333215Clb=7.5m/s t=-40.4C h=0.4% p=-1.0hPa 403.401 MHz Type=RS41-NG ser=U3044508 Radiosonde
N4XWC-2U30445082022-12-06 01:03:2132.1927-88.14298122432831Clb=4.9m/s t=-40.7C h=0.4% p=-1.0hPa 403.401 MHz Type=RS41-NG ser=U3044508 Radiosonde
N4XWC-2U30445082022-12-06 01:02:0232.1885-88.17427217232483Clb=7.3m/s t=-44.3C h=0.5% p=-1.0hPa 403.401 MHz Type=RS41-NG ser=U3044508 Radiosonde
N4XWC-2U30445082022-12-06 01:00:3432.1854-88.20387717032133Clb=3.1m/s t=-45.4C h=0.6% p=-1.0hPa 403.401 MHz Type=RS41-NG ser=U3044508 Radiosonde
N4XWC-2U30445082022-12-06 00:59:0932.183-88.23337619131788Clb=6.4m/s t=-44.8C h=0.6% p=-1.0hPa 403.401 MHz Type=RS41-NG ser=U3044508 Radiosonde
N4XWC-2U30445082022-12-06 00:57:4432.1791-88.26016714831442Clb=5.3m/s t=-45.9C h=0.6% p=-1.0hPa 403.401 MHz Type=RS41-NG ser=U3044508 Radiosonde
N4XWC-2U30445082022-12-06 00:56:1432.1758-88.28359912031071Clb=7.7m/s t=-45.9C h=0.6% p=-1.0hPa 403.401 MHz Type=RS41-NG ser=U3044508 Radiosonde
N4XWC-2U30445082022-12-06 00:54:4232.1734-88.30718317630685Clb=4.7m/s t=-44.7C h=0.5% p=-1.0hPa 403.401 MHz Type=RS41-NG ser=U3044508 Radiosonde
N4XWC-2U30445082022-12-06 00:53:0932.1724-88.33517015430328Clb=3.9m/s t=-46.0C h=0.6% p=-1.0hPa 403.401 MHz Type=RS41-NG ser=U3044508 Radiosonde
N4XWC-2U30445082022-12-06 00:51:4132.1711-88.36278716530016Clb=6.4m/s t=-46.8C h=0.7% p=-1.0hPa 403.401 MHz Type=RS41-NG ser=U3044508 Radiosonde
N4XWC-2U30445082022-12-06 00:50:4032.1708-88.38888713529701Clb=10.4m/s t=-47.3C h=0.7% p=-1.0hPa 403.401 MHz Type=RS41-NG ser=U3044508 Radiosonde
N4XWC-2U30445082022-12-06 00:49:3632.1639-88.50918310928005Clb=10.1m/s t=-51.4C h=0.9% p=-1.0hPa 403.401 MHz Type=RS41-NG ser=U3044508 Radiosonde
N4XWC-2U30445082022-12-06 00:49:3232.159-88.52858211127614Clb=5.6m/s t=-51.4C h=0.8% p=-1.0hPa 403.401 MHz Type=RS41-NG ser=U3044508 Radiosonde
N4XWC-2U30445082022-12-06 00:49:2832.1558-88.5457810227285Clb=7.7m/s t=-52.7C h=0.9% p=-1.0hPa 403.401 MHz Type=RS41-NG ser=U3044508 Radiosonde
N4XWC-2U30445082022-12-06 00:48:0332.1543-88.5582785426979Clb=7.5m/s t=-53.5C h=0.9% p=-1.0hPa 403.401 MHz Type=RS41-NG ser=U3044508 Radiosonde
N4XWC-2U30445082022-12-06 00:46:1232.1525-88.5717769326669Clb=1.2m/s t=-54.6C h=1.0% p=-1.0hPa 403.401 MHz Type=RS41-NG ser=U3044508 Radiosonde
N4XWC-2U30445082022-12-06 00:44:2432.1522-88.5848929626327Clb=6.4m/s t=-54.2C h=1.1% p=-1.0hPa 403.401 MHz Type=RS41-NG ser=U3044508 Radiosonde
N4XWC-2U30445082022-12-06 00:42:3332.1535-88.597818925945Clb=8.5m/s t=-54.1C h=1.1% p=-1.0hPa 403.401 MHz Type=RS41-NG ser=U3044508 Radiosonde
N4XWC-2U30445082022-12-06 00:40:3732.1553-88.60971156325551Clb=4.6m/s t=-54.1C h=1.0% p=-1.0hPa 403.401 MHz Type=RS41-NG ser=U3044508 Radiosonde
N4XWC-2U30445082022-12-06 00:38:4632.1581-88.6218937625165Clb=5.0m/s t=-54.1C h=1.0% p=-1.0hPa 403.401 MHz Type=RS41-NG ser=U3044508 Radiosonde
N4XWC-2U30445082022-12-06 00:36:4632.1596-88.6321093724911Clb=2.7m/s t=-56.0C h=1.1% p=-1.0hPa 403.401 MHz Type=RS41-NG ser=U3044508 Radiosonde
N4XWC-2U30445082022-12-06 00:35:2932.1627-88.64191064424655Clb=4.0m/s t=-57.4C h=1.2% p=-1.0hPa 403.401 MHz Type=RS41-NG ser=U3044508 Radiosonde
N4XWC-2U30445082022-12-06 00:34:2632.1652-88.6528985924343Clb=7.6m/s t=-57.9C h=1.3% p=-1.0hPa 403.401 MHz Type=RS41-NG ser=U3044508 Radiosonde
N4XWC-2U30445082022-12-06 00:33:2332.168-88.66341045923999Clb=6.1m/s t=-57.8C h=1.2% p=-1.0hPa 403.401 MHz Type=RS41-NG ser=U3044508 Radiosonde
N4XWC-2U30445082022-12-06 00:31:2632.1806-88.72881105021242Clb=3.7m/s t=-64.3C h=2.3% p=-1.0hPa 403.401 MHz Type=RS41-NG ser=U3044508 Radiosonde
N4XWC-2U30445082022-12-06 00:29:3332.1886-88.74271168520847Clb=3.2m/s t=-66.1C h=3.2% p=-1.0hPa 403.401 MHz Type=RS41-NG ser=U3044508 Radiosonde
N4XWC-2U30445082022-12-06 00:27:3932.1913-88.75121097020715Clb=4.0m/s t=-67.9C h=3.8% p=-1.0hPa 403.401 MHz Type=RS41-NG ser=U3044508 Radiosonde
N4XWC-2U30445082022-12-06 00:25:4032.1916-88.7626804620485Clb=4.0m/s t=-70.5C h=4.7% p=-1.0hPa 403.401 MHz Type=RS41-NG ser=U3044508 Radiosonde
N4XWC-2U30445082022-12-06 00:23:4332.1932-88.77161094620180Clb=5.5m/s t=-70.6C h=5.1% p=-1.0hPa 403.401 MHz Type=RS41-NG ser=U3044508 Radiosonde
N4XWC-2U30445082022-12-06 00:21:4832.1987-88.7811296719899Clb=5.0m/s t=-71.6C h=5.6% p=-1.0hPa 403.401 MHz Type=RS41-NG ser=U3044508 Radiosonde
N4XWC-2U30445082022-12-06 00:19:5132.2039-88.78971198719698Clb=4.0m/s t=-70.6C h=6.0% p=-1.0hPa 403.401 MHz Type=RS41-NG ser=U3044508 Radiosonde
N4XWC-2U30445082022-12-06 00:18:0032.2096-88.80381109819452Clb=5.0m/s t=-72.1C h=6.6% p=-1.0hPa 403.401 MHz Type=RS41-NG ser=U3044508 Radiosonde
N4XWC-2U30445082022-12-06 00:16:0532.2134-88.8222989419198Clb=3.9m/s t=-71.3C h=7.5% p=-1.0hPa 403.401 MHz Type=RS41-NG ser=U3044508 Radiosonde
N4XWC-2U30445082022-12-06 00:15:0432.2155-88.83919811318908Clb=4.1m/s t=-71.4C h=8.8% p=-1.0hPa 403.401 MHz Type=RS41-NG ser=U3044508 Radiosonde
N4XWC-2U30445082022-12-06 00:14:2632.2168-88.85868911118604Clb=3.0m/s t=-74.4C h=11.1% p=-1.0hPa 403.401 MHz Type=RS41-NG ser=U3044508 Radiosonde
N4XWC-2U30445082022-12-06 00:13:5032.2153-88.8751888318342Clb=2.8m/s t=-74.3C h=11.5% p=-1.0hPa 403.401 MHz Type=RS41-NG ser=U3044508 Radiosonde
N4XWC-2U30445082022-12-06 00:13:3932.2163-88.89091028718073Clb=3.9m/s t=-74.4C h=11.2% p=-1.0hPa 403.401 MHz Type=RS41-NG ser=U3044508 Radiosonde
N4XWC-2U30445082022-12-06 00:13:2232.2192-88.909910511517803Clb=5.4m/s t=-74.3C h=11.6% p=-1.0hPa 403.401 MHz Type=RS41-NG ser=U3044508 Radiosonde
N4XWC-2U30445082022-12-06 00:12:5932.2235-88.930510511517521Clb=4.3m/s t=-74.0C h=11.5% p=-1.0hPa 403.401 MHz Type=RS41-NG ser=U3044508 Radiosonde
N4XWC-2U30445082022-12-06 00:12:4932.2294-88.951410613117268Clb=3.0m/s t=-73.7C h=12.6% p=-1.0hPa 403.401 MHz Type=RS41-NG ser=U3044508 Radiosonde
N4XWC-2U30445082022-12-06 00:11:0432.2355-88.975410314317032Clb=4.3m/s t=-75.5C h=13.7% p=-1.0hPa 403.401 MHz Type=RS41-NG ser=U3044508 Radiosonde
N4XWC-2U30445082022-12-06 00:09:0932.2387-89.00259212016748Clb=4.2m/s t=-76.2C h=14.0% p=-1.0hPa 403.401 MHz Type=RS41-NG ser=U3044508 Radiosonde
N4XWC-2U30445082022-12-06 00:07:1832.2413-89.022810211116484Clb=4.5m/s t=-75.0C h=12.3% p=-1.0hPa 403.401 MHz Type=RS41-NG ser=U3044508 Radiosonde
N4XWC-2U30445082022-12-06 00:05:2932.2456-89.039710313516241Clb=4.2m/s t=-74.9C h=12.0% p=-1.0hPa 403.401 MHz Type=RS41-NG ser=U3044508 Radiosonde
N4XWC-2U30445082022-12-06 00:03:5132.2506-89.061110211915945Clb=6.0m/s t=-73.3C h=10.3% p=-1.0hPa 403.401 MHz Type=RS41-NG ser=U3044508 Radiosonde
N4XWC-2U30445082022-12-06 00:02:5032.2551-89.083710413015667Clb=5.1m/s t=-71.4C h=9.5% p=-1.0hPa 403.401 MHz Type=RS41-NG ser=U3044508 Radiosonde
N4XWC-2U30445082022-12-06 00:01:4932.2592-89.10919713715392Clb=4.3m/s t=-70.1C h=9.6% p=-1.0hPa 403.401 MHz Type=RS41-NG ser=U3044508 Radiosonde
N4XWC-2U30445082022-12-06 00:00:4932.2607-89.15759313314856Clb=3.7m/s t=-68.9C h=11.8% p=-1.0hPa 403.401 MHz Type=RS41-NG ser=U3044508 Radiosonde
N4XWC-2U30445082022-12-06 00:00:3432.2611-89.17988712414596Clb=4.5m/s t=-69.0C h=14.4% p=-1.0hPa 403.401 MHz Type=RS41-NG ser=U3044508 Radiosonde
N4XWC-2U30445082022-12-06 00:00:1332.2632-89.201110310614314Clb=3.9m/s t=-67.7C h=20.0% p=-1.0hPa 403.401 MHz Type=RS41-NG ser=U3044508 Radiosonde
N4XWC-2U30445082022-12-05 23:58:2232.2681-89.223110414614037Clb=4.2m/s t=-273.0C h=-1.0% p=-1.0hPa 403.401 MHz Type=RS41-NG ser=U3044508 Radiosonde
N4XWC-2U30445082022-12-05 23:56:3232.2722-89.24999614413779Clb=4.0m/s t=-273.0C h=-1.0% p=-1.0hPa 403.401 MHz Type=RS41 ser=U3044508 Radiosonde